sensor_id;sensor_type;location;lat;lon;timestamp;pressure;altitude;pressure_sealevel;temperature
19644;BMP180;9970;-36.854;174.870;2023-07-08T00:02:15;99426.00;;;14.80
19644;BMP180;9970;-36.854;174.870;2023-07-08T00:04:48;99416.00;;;14.80
19644;BMP180;9970;-36.854;174.870;2023-07-08T00:07:22;99410.00;;;14.90
19644;BMP180;9970;-36.854;174.870;2023-07-08T00:09:55;99405.00;;;14.90
19644;BMP180;9970;-36.854;174.870;2023-07-08T00:12:28;99409.00;;;14.90
19644;BMP180;9970;-36.854;174.870;2023-07-08T00:15:02;99400.00;;;14.90
19644;BMP180;9970;-36.854;174.870;2023-07-08T00:17:36;99395.00;;;14.90
19644;BMP180;9970;-36.854;174.870;2023-07-08T00:22:57;99385.00;;;14.90
19644;BMP180;9970;-36.854;174.870;2023-07-08T00:25:34;99377.00;;;14.90
19644;BMP180;9970;-36.854;174.870;2023-07-08T00:28:18;99374.00;;;14.90
19644;BMP180;9970;-36.854;174.870;2023-07-08T00:30:52;99368.00;;;14.90
19644;BMP180;9970;-36.854;174.870;2023-07-08T00:33:27;99354.00;;;15.00
19644;BMP180;9970;-36.854;174.870;2023-07-08T00:36:01;99352.00;;;15.00
19644;BMP180;9970;-36.854;174.870;2023-07-08T00:38:34;99353.00;;;15.00
19644;BMP180;9970;-36.854;174.870;2023-07-08T00:43:58;99338.00;;;15.00
19644;BMP180;9970;-36.854;174.870;2023-07-08T00:46:34;99335.00;;;15.00
19644;BMP180;9970;-36.854;174.870;2023-07-08T00:51:46;99336.00;;;15.10
19644;BMP180;9970;-36.854;174.870;2023-07-08T00:54:20;99326.00;;;15.10
19644;BMP180;9970;-36.854;174.870;2023-07-08T00:56:57;99318.00;;;15.20
19644;BMP180;9970;-36.854;174.870;2023-07-08T00:59:49;99313.00;;;15.20
19644;BMP180;9970;-36.854;174.870;2023-07-08T01:02:20;99296.00;;;15.30
19644;BMP180;9970;-36.854;174.870;2023-07-08T01:05:01;99296.00;;;15.30
19644;BMP180;9970;-36.854;174.870;2023-07-08T01:07:35;99297.00;;;15.30
19644;BMP180;9970;-36.854;174.870;2023-07-08T01:10:12;99305.00;;;15.40
19644;BMP180;9970;-36.854;174.870;2023-07-08T01:12:52;99298.00;;;15.40
19644;BMP180;9970;-36.854;174.870;2023-07-08T01:15:31;99294.00;;;15.40
19644;BMP180;9970;-36.854;174.870;2023-07-08T01:18:04;99300.00;;;15.50
19644;BMP180;9970;-36.854;174.870;2023-07-08T01:20:38;99298.00;;;15.50
19644;BMP180;9970;-36.854;174.870;2023-07-08T01:23:11;99297.00;;;15.50
19644;BMP180;9970;-36.854;174.870;2023-07-08T01:25:46;99295.00;;;15.40
19644;BMP180;9970;-36.854;174.870;2023-07-08T01:28:19;99308.00;;;15.40
19644;BMP180;9970;-36.854;174.870;2023-07-08T01:30:52;99304.00;;;15.40
19644;BMP180;9970;-36.854;174.870;2023-07-08T01:33:28;99295.00;;;15.40
19644;BMP180;9970;-36.854;174.870;2023-07-08T01:36:01;99292.00;;;15.40
19644;BMP180;9970;-36.854;174.870;2023-07-08T01:38:34;99290.00;;;15.40
19644;BMP180;9970;-36.854;174.870;2023-07-08T01:41:10;99279.00;;;15.40
19644;BMP180;9970;-36.854;174.870;2023-07-08T01:43:48;99280.00;;;15.50
19644;BMP180;9970;-36.854;174.870;2023-07-08T01:46:25;99265.00;;;15.50
19644;BMP180;9970;-36.854;174.870;2023-07-08T01:49:00;99270.00;;;15.50
19644;BMP180;9970;-36.854;174.870;2023-07-08T01:51:33;99276.00;;;15.50
19644;BMP180;9970;-36.854;174.870;2023-07-08T01:54:06;99262.00;;;15.50
19644;BMP180;9970;-36.854;174.870;2023-07-08T01:56:39;99271.00;;;15.50
19644;BMP180;9970;-36.854;174.870;2023-07-08T01:59:15;99277.00;;;15.50
19644;BMP180;9970;-36.854;174.870;2023-07-08T02:01:49;99265.00;;;15.50
19644;BMP180;9970;-36.854;174.870;2023-07-08T02:04:24;99270.00;;;15.50
19644;BMP180;9970;-36.854;174.870;2023-07-08T02:06:58;99280.00;;;15.40
19644;BMP180;9970;-36.854;174.870;2023-07-08T02:09:32;99278.00;;;15.40
19644;BMP180;9970;-36.854;174.870;2023-07-08T02:12:06;99275.00;;;15.40
19644;BMP180;9970;-36.854;174.870;2023-07-08T02:14:39;99269.00;;;15.40
19644;BMP180;9970;-36.854;174.870;2023-07-08T02:17:16;99277.00;;;15.40
19644;BMP180;9970;-36.854;174.870;2023-07-08T02:19:49;99262.00;;;15.30
19644;BMP180;9970;-36.854;174.870;2023-07-08T02:22:25;99273.00;;;15.30
19644;BMP180;9970;-36.854;174.870;2023-07-08T02:24:58;99260.00;;;15.30
19644;BMP180;9970;-36.854;174.870;2023-07-08T02:27:31;99252.00;;;15.40
19644;BMP180;9970;-36.854;174.870;2023-07-08T02:30:04;99261.00;;;15.40
19644;BMP180;9970;-36.854;174.870;2023-07-08T02:32:37;99259.00;;;15.40
19644;BMP180;9970;-36.854;174.870;2023-07-08T02:35:11;99256.00;;;15.50
19644;BMP180;9970;-36.854;174.870;2023-07-08T02:37:44;99256.00;;;15.50
19644;BMP180;9970;-36.854;174.870;2023-07-08T02:40:17;99255.00;;;15.50
19644;BMP180;9970;-36.854;174.870;2023-07-08T02:42:50;99252.00;;;15.40
19644;BMP180;9970;-36.854;174.870;2023-07-08T02:45:24;99252.00;;;15.40
19644;BMP180;9970;-36.854;174.870;2023-07-08T02:47:57;99253.00;;;15.30
19644;BMP180;9970;-36.854;174.870;2023-07-08T02:50:30;99249.00;;;15.30
19644;BMP180;9970;-36.854;174.870;2023-07-08T02:53:03;99252.00;;;15.30
19644;BMP180;9970;-36.854;174.870;2023-07-08T02:55:36;99254.00;;;15.30
19644;BMP180;9970;-36.854;174.870;2023-07-08T02:58:10;99264.00;;;15.20
19644;BMP180;9970;-36.854;174.870;2023-07-08T03:00:43;99263.00;;;15.20
19644;BMP180;9970;-36.854;174.870;2023-07-08T03:03:16;99251.00;;;15.20
19644;BMP180;9970;-36.854;174.870;2023-07-08T03:06:00;99249.00;;;15.00
19644;BMP180;9970;-36.854;174.870;2023-07-08T03:08:33;99245.00;;;14.90
19644;BMP180;9970;-36.854;174.870;2023-07-08T03:11:07;99244.00;;;14.90
19644;BMP180;9970;-36.854;174.870;2023-07-08T03:13:43;99234.00;;;14.80
19644;BMP180;9970;-36.854;174.870;2023-07-08T03:16:16;99230.00;;;14.80
19644;BMP180;9970;-36.854;174.870;2023-07-08T03:18:50;99231.00;;;14.80
19644;BMP180;9970;-36.854;174.870;2023-07-08T03:21:23;99230.00;;;14.70
19644;BMP180;9970;-36.854;174.870;2023-07-08T03:23:56;99230.00;;;14.70
19644;BMP180;9970;-36.854;174.870;2023-07-08T03:26:29;99229.00;;;14.70
19644;BMP180;9970;-36.854;174.870;2023-07-08T03:29:02;99234.00;;;14.80
19644;BMP180;9970;-36.854;174.870;2023-07-08T03:31:35;99239.00;;;14.80
19644;BMP180;9970;-36.854;174.870;2023-07-08T03:34:12;99241.00;;;14.80
19644;BMP180;9970;-36.854;174.870;2023-07-08T03:36:49;99237.00;;;14.80
19644;BMP180;9970;-36.854;174.870;2023-07-08T03:39:25;99237.00;;;14.80
19644;BMP180;9970;-36.854;174.870;2023-07-08T03:41:58;99236.00;;;14.80
19644;BMP180;9970;-36.854;174.870;2023-07-08T03:44:31;99232.00;;;14.80
19644;BMP180;9970;-36.854;174.870;2023-07-08T03:47:04;99241.00;;;14.80
19644;BMP180;9970;-36.854;174.870;2023-07-08T03:49:38;99235.00;;;14.80
19644;BMP180;9970;-36.854;174.870;2023-07-08T03:52:14;99241.00;;;14.80
19644;BMP180;9970;-36.854;174.870;2023-07-08T03:54:48;99243.00;;;14.70
19644;BMP180;9970;-36.854;174.870;2023-07-08T03:57:21;99242.00;;;14.70
19644;BMP180;9970;-36.854;174.870;2023-07-08T03:59:55;99252.00;;;14.70
19644;BMP180;9970;-36.854;174.870;2023-07-08T04:02:28;99248.00;;;14.80
19644;BMP180;9970;-36.854;174.870;2023-07-08T04:05:01;99247.00;;;14.80
19644;BMP180;9970;-36.854;174.870;2023-07-08T04:07:35;99247.00;;;14.80
19644;BMP180;9970;-36.854;174.870;2023-07-08T04:10:13;99243.00;;;14.80
19644;BMP180;9970;-36.854;174.870;2023-07-08T04:12:42;99245.00;;;14.80
19644;BMP180;9970;-36.854;174.870;2023-07-08T04:15:16;99234.00;;;14.80
19644;BMP180;9970;-36.854;174.870;2023-07-08T04:17:50;99230.00;;;14.80
19644;BMP180;9970;-36.854;174.870;2023-07-08T04:20:23;99241.00;;;14.80
19644;BMP180;9970;-36.854;174.870;2023-07-08T04:22:57;99241.00;;;14.70
19644;BMP180;9970;-36.854;174.870;2023-07-08T04:25:30;99242.00;;;14.70
19644;BMP180;9970;-36.854;174.870;2023-07-08T04:28:03;99236.00;;;14.70
19644;BMP180;9970;-36.854;174.870;2023-07-08T04:30:36;99245.00;;;14.70
19644;BMP180;9970;-36.854;174.870;2023-07-08T04:33:11;99235.00;;;14.70
19644;BMP180;9970;-36.854;174.870;2023-07-08T04:35:45;99236.00;;;14.70
19644;BMP180;9970;-36.854;174.870;2023-07-08T04:38:23;99236.00;;;14.70
19644;BMP180;9970;-36.854;174.870;2023-07-08T04:40:56;99239.00;;;14.60
19644;BMP180;9970;-36.854;174.870;2023-07-08T04:43:30;99237.00;;;14.60
19644;BMP180;9970;-36.854;174.870;2023-07-08T04:46:03;99236.00;;;14.60
19644;BMP180;9970;-36.854;174.870;2023-07-08T04:48:37;99242.00;;;14.60
19644;BMP180;9970;-36.854;174.870;2023-07-08T04:51:10;99240.00;;;14.60
19644;BMP180;9970;-36.854;174.870;2023-07-08T04:53:43;99233.00;;;14.60
19644;BMP180;9970;-36.854;174.870;2023-07-08T04:56:16;99230.00;;;14.60
19644;BMP180;9970;-36.854;174.870;2023-07-08T04:58:49;99241.00;;;14.60
19644;BMP180;9970;-36.854;174.870;2023-07-08T05:01:22;99234.00;;;14.60
19644;BMP180;9970;-36.854;174.870;2023-07-08T05:03:55;99225.00;;;14.60
19644;BMP180;9970;-36.854;174.870;2023-07-08T05:06:30;99232.00;;;14.50
19644;BMP180;9970;-36.854;174.870;2023-07-08T05:09:03;99234.00;;;14.50
19644;BMP180;9970;-36.854;174.870;2023-07-08T05:11:37;99229.00;;;14.50
19644;BMP180;9970;-36.854;174.870;2023-07-08T05:14:11;99234.00;;;14.50
19644;BMP180;9970;-36.854;174.870;2023-07-08T05:16:44;99229.00;;;14.50
19644;BMP180;9970;-36.854;174.870;2023-07-08T05:19:17;99231.00;;;14.40
19644;BMP180;9970;-36.854;174.870;2023-07-08T05:21:55;99235.00;;;14.40
19644;BMP180;9970;-36.854;174.870;2023-07-08T05:24:28;99233.00;;;14.40
19644;BMP180;9970;-36.854;174.870;2023-07-08T05:27:01;99231.00;;;14.40
19644;BMP180;9970;-36.854;174.870;2023-07-08T05:29:35;99224.00;;;14.40
19644;BMP180;9970;-36.854;174.870;2023-07-08T05:32:08;99223.00;;;14.40
19644;BMP180;9970;-36.854;174.870;2023-07-08T05:34:41;99220.00;;;14.40
19644;BMP180;9970;-36.854;174.870;2023-07-08T05:37:15;99223.00;;;14.30
19644;BMP180;9970;-36.854;174.870;2023-07-08T05:39:50;99228.00;;;14.30
19644;BMP180;9970;-36.854;174.870;2023-07-08T05:42:23;99222.00;;;14.30
19644;BMP180;9970;-36.854;174.870;2023-07-08T05:44:56;99227.00;;;14.30
19644;BMP180;9970;-36.854;174.870;2023-07-08T05:47:29;99231.00;;;14.30
19644;BMP180;9970;-36.854;174.870;2023-07-08T05:50:02;99224.00;;;14.30
19644;BMP180;9970;-36.854;174.870;2023-07-08T05:52:35;99219.00;;;14.30
19644;BMP180;9970;-36.854;174.870;2023-07-08T05:55:12;99221.00;;;14.30
19644;BMP180;9970;-36.854;174.870;2023-07-08T05:57:45;99212.00;;;14.20
19644;BMP180;9970;-36.854;174.870;2023-07-08T06:00:18;99208.00;;;14.20
19644;BMP180;9970;-36.854;174.870;2023-07-08T06:02:52;99209.00;;;14.20
19644;BMP180;9970;-36.854;174.870;2023-07-08T06:05:25;99209.00;;;14.20
19644;BMP180;9970;-36.854;174.870;2023-07-08T06:07:58;99215.00;;;14.20
19644;BMP180;9970;-36.854;174.870;2023-07-08T06:10:31;99216.00;;;14.20
19644;BMP180;9970;-36.854;174.870;2023-07-08T06:13:04;99224.00;;;14.20
19644;BMP180;9970;-36.854;174.870;2023-07-08T06:15:38;99222.00;;;14.20
19644;BMP180;9970;-36.854;174.870;2023-07-08T06:18:12;99221.00;;;14.20
19644;BMP180;9970;-36.854;174.870;2023-07-08T06:20:55;99222.00;;;14.30
19644;BMP180;9970;-36.854;174.870;2023-07-08T06:23:29;99220.00;;;14.20
19644;BMP180;9970;-36.854;174.870;2023-07-08T06:26:02;99218.00;;;14.20
19644;BMP180;9970;-36.854;174.870;2023-07-08T06:28:35;99211.00;;;14.20
19644;BMP180;9970;-36.854;174.870;2023-07-08T06:31:08;99222.00;;;14.10
19644;BMP180;9970;-36.854;174.870;2023-07-08T06:33:42;99219.00;;;14.10
19644;BMP180;9970;-36.854;174.870;2023-07-08T06:36:15;99231.00;;;14.10
19644;BMP180;9970;-36.854;174.870;2023-07-08T06:38:48;99230.00;;;14.10
19644;BMP180;9970;-36.854;174.870;2023-07-08T06:41:21;99230.00;;;14.00
19644;BMP180;9970;-36.854;174.870;2023-07-08T06:43:54;99228.00;;;14.00
19644;BMP180;9970;-36.854;174.870;2023-07-08T06:46:27;99229.00;;;14.00
19644;BMP180;9970;-36.854;174.870;2023-07-08T06:49:00;99237.00;;;14.00
19644;BMP180;9970;-36.854;174.870;2023-07-08T06:51:33;99230.00;;;14.00
19644;BMP180;9970;-36.854;174.870;2023-07-08T06:54:06;99230.00;;;14.00
19644;BMP180;9970;-36.854;174.870;2023-07-08T06:56:42;99225.00;;;14.00
19644;BMP180;9970;-36.854;174.870;2023-07-08T06:59:15;99235.00;;;14.00
19644;BMP180;9970;-36.854;174.870;2023-07-08T07:01:48;99241.00;;;13.90
19644;BMP180;9970;-36.854;174.870;2023-07-08T07:04:23;99224.00;;;13.90
19644;BMP180;9970;-36.854;174.870;2023-07-08T07:06:57;99230.00;;;13.90
19644;BMP180;9970;-36.854;174.870;2023-07-08T07:09:30;99228.00;;;13.90
19644;BMP180;9970;-36.854;174.870;2023-07-08T07:12:04;99234.00;;;13.90
19644;BMP180;9970;-36.854;174.870;2023-07-08T07:14:37;99229.00;;;13.90
19644;BMP180;9970;-36.854;174.870;2023-07-08T07:17:15;99228.00;;;13.80
19644;BMP180;9970;-36.854;174.870;2023-07-08T07:19:48;99216.00;;;13.80
19644;BMP180;9970;-36.854;174.870;2023-07-08T07:22:21;99218.00;;;13.80
19644;BMP180;9970;-36.854;174.870;2023-07-08T07:24:54;99229.00;;;13.80
19644;BMP180;9970;-36.854;174.870;2023-07-08T07:27:27;99235.00;;;13.80
19644;BMP180;9970;-36.854;174.870;2023-07-08T07:30:00;99229.00;;;13.70
19644;BMP180;9970;-36.854;174.870;2023-07-08T07:32:33;99227.00;;;13.70
19644;BMP180;9970;-36.854;174.870;2023-07-08T07:35:10;99234.00;;;13.70
19644;BMP180;9970;-36.854;174.870;2023-07-08T07:37:43;99235.00;;;13.70
19644;BMP180;9970;-36.854;174.870;2023-07-08T07:40:16;99233.00;;;13.70
19644;BMP180;9970;-36.854;174.870;2023-07-08T07:42:49;99244.00;;;13.70
19644;BMP180;9970;-36.854;174.870;2023-07-08T07:45:22;99231.00;;;13.60
19644;BMP180;9970;-36.854;174.870;2023-07-08T07:47:55;99232.00;;;13.60
19644;BMP180;9970;-36.854;174.870;2023-07-08T07:50:28;99231.00;;;13.60
19644;BMP180;9970;-36.854;174.870;2023-07-08T07:53:01;99230.00;;;13.60
19644;BMP180;9970;-36.854;174.870;2023-07-08T07:55:35;99229.00;;;13.60
19644;BMP180;9970;-36.854;174.870;2023-07-08T07:58:08;99236.00;;;13.60
19644;BMP180;9970;-36.854;174.870;2023-07-08T08:00:42;99237.00;;;13.60
19644;BMP180;9970;-36.854;174.870;2023-07-08T08:03:15;99237.00;;;13.50
19644;BMP180;9970;-36.854;174.870;2023-07-08T08:05:50;99244.00;;;13.50
19644;BMP180;9970;-36.854;174.870;2023-07-08T08:08:23;99248.00;;;13.50
19644;BMP180;9970;-36.854;174.870;2023-07-08T08:10:56;99253.00;;;13.50
19644;BMP180;9970;-36.854;174.870;2023-07-08T08:13:29;99262.00;;;13.50
19644;BMP180;9970;-36.854;174.870;2023-07-08T08:16:02;99257.00;;;13.50
19644;BMP180;9970;-36.854;174.870;2023-07-08T08:18:36;99257.00;;;13.50
19644;BMP180;9970;-36.854;174.870;2023-07-08T08:21:09;99264.00;;;13.50
19644;BMP180;9970;-36.854;174.870;2023-07-08T08:23:42;99267.00;;;13.40
19644;BMP180;9970;-36.854;174.870;2023-07-08T08:26:15;99257.00;;;13.40
19644;BMP180;9970;-36.854;174.870;2023-07-08T08:28:48;99264.00;;;13.40
19644;BMP180;9970;-36.854;174.870;2023-07-08T08:31:21;99263.00;;;13.40
19644;BMP180;9970;-36.854;174.870;2023-07-08T08:33:55;99257.00;;;13.40
19644;BMP180;9970;-36.854;174.870;2023-07-08T08:36:28;99255.00;;;13.30
19644;BMP180;9970;-36.854;174.870;2023-07-08T08:39:01;99256.00;;;13.30
19644;BMP180;9970;-36.854;174.870;2023-07-08T08:41:36;99251.00;;;13.30
19644;BMP180;9970;-36.854;174.870;2023-07-08T08:44:14;99255.00;;;13.30
19644;BMP180;9970;-36.854;174.870;2023-07-08T08:47:05;99256.00;;;13.30
19644;BMP180;9970;-36.854;174.870;2023-07-08T08:49:44;99253.00;;;13.20
19644;BMP180;9970;-36.854;174.870;2023-07-08T08:52:15;99252.00;;;13.20
19644;BMP180;9970;-36.854;174.870;2023-07-08T08:54:48;99259.00;;;13.20
19644;BMP180;9970;-36.854;174.870;2023-07-08T08:57:42;99247.00;;;13.10
19644;BMP180;9970;-36.854;174.870;2023-07-08T09:00:18;99241.00;;;13.10
19644;BMP180;9970;-36.854;174.870;2023-07-08T09:02:57;99236.00;;;13.10
19644;BMP180;9970;-36.854;174.870;2023-07-08T09:05:28;99241.00;;;13.10
19644;BMP180;9970;-36.854;174.870;2023-07-08T09:08:06;99244.00;;;13.10
19644;BMP180;9970;-36.854;174.870;2023-07-08T09:10:55;99247.00;;;13.10
19644;BMP180;9970;-36.854;174.870;2023-07-08T09:13:33;99255.00;;;13.10
19644;BMP180;9970;-36.854;174.870;2023-07-08T09:19:12;99252.00;;;13.10
19644;BMP180;9970;-36.854;174.870;2023-07-08T09:21:55;99245.00;;;13.10
19644;BMP180;9970;-36.854;174.870;2023-07-08T09:24:41;99232.00;;;13.10
19644;BMP180;9970;-36.854;174.870;2023-07-08T09:27:14;99241.00;;;13.00
19644;BMP180;9970;-36.854;174.870;2023-07-08T09:29:47;99246.00;;;13.00
19644;BMP180;9970;-36.854;174.870;2023-07-08T09:32:22;99237.00;;;13.00
19644;BMP180;9970;-36.854;174.870;2023-07-08T09:34:57;99240.00;;;13.00
19644;BMP180;9970;-36.854;174.870;2023-07-08T09:37:31;99242.00;;;13.00
19644;BMP180;9970;-36.854;174.870;2023-07-08T09:40:17;99239.00;;;13.00
19644;BMP180;9970;-36.854;174.870;2023-07-08T09:42:55;99245.00;;;13.00
19644;BMP180;9970;-36.854;174.870;2023-07-08T09:45:29;99235.00;;;13.00
19644;BMP180;9970;-36.854;174.870;2023-07-08T09:48:03;99228.00;;;13.00
19644;BMP180;9970;-36.854;174.870;2023-07-08T09:50:37;99237.00;;;12.90
19644;BMP180;9970;-36.854;174.870;2023-07-08T09:53:11;99233.00;;;12.90
19644;BMP180;9970;-36.854;174.870;2023-07-08T09:55:45;99232.00;;;12.90
19644;BMP180;9970;-36.854;174.870;2023-07-08T09:58:41;99228.00;;;12.90
19644;BMP180;9970;-36.854;174.870;2023-07-08T10:01:18;99236.00;;;12.90
19644;BMP180;9970;-36.854;174.870;2023-07-08T10:03:58;99224.00;;;12.80
19644;BMP180;9970;-36.854;174.870;2023-07-08T10:06:32;99225.00;;;12.80
19644;BMP180;9970;-36.854;174.870;2023-07-08T10:09:13;99231.00;;;12.90
19644;BMP180;9970;-36.854;174.870;2023-07-08T10:11:51;99228.00;;;12.90
19644;BMP180;9970;-36.854;174.870;2023-07-08T10:14:29;99240.00;;;12.80
19644;BMP180;9970;-36.854;174.870;2023-07-08T10:17:02;99226.00;;;12.80
19644;BMP180;9970;-36.854;174.870;2023-07-08T10:19:35;99233.00;;;12.80
19644;BMP180;9970;-36.854;174.870;2023-07-08T10:25:26;99229.00;;;12.70
19644;BMP180;9970;-36.854;174.870;2023-07-08T10:28:24;99226.00;;;12.70
19644;BMP180;9970;-36.854;174.870;2023-07-08T10:34:24;99222.00;;;12.70
19644;BMP180;9970;-36.854;174.870;2023-07-08T10:37:23;99227.00;;;12.70
19644;BMP180;9970;-36.854;174.870;2023-07-08T10:43:15;99225.00;;;12.70
19644;BMP180;9970;-36.854;174.870;2023-07-08T10:51:48;99234.00;;;12.70
19644;BMP180;9970;-36.854;174.870;2023-07-08T10:54:34;99227.00;;;12.70
19644;BMP180;9970;-36.854;174.870;2023-07-08T10:57:26;99223.00;;;12.70
19644;BMP180;9970;-36.854;174.870;2023-07-08T11:03:21;99221.00;;;12.70
19644;BMP180;9970;-36.854;174.870;2023-07-08T11:05:55;99230.00;;;12.70
19644;BMP180;9970;-36.854;174.870;2023-07-08T11:08:31;99231.00;;;12.80
19644;BMP180;9970;-36.854;174.870;2023-07-08T11:13:55;99244.00;;;12.70
19644;BMP180;9970;-36.854;174.870;2023-07-08T11:16:35;99245.00;;;12.70
19644;BMP180;9970;-36.854;174.870;2023-07-08T11:19:13;99237.00;;;12.70
19644;BMP180;9970;-36.854;174.870;2023-07-08T11:21:52;99235.00;;;12.70
19644;BMP180;9970;-36.854;174.870;2023-07-08T11:24:42;99222.00;;;12.70
19644;BMP180;9970;-36.854;174.870;2023-07-08T11:27:20;99225.00;;;12.70
19644;BMP180;9970;-36.854;174.870;2023-07-08T11:30:17;99232.00;;;12.70
19644;BMP180;9970;-36.854;174.870;2023-07-08T11:32:52;99229.00;;;12.70
19644;BMP180;9970;-36.854;174.870;2023-07-08T11:35:38;99230.00;;;12.70
19644;BMP180;9970;-36.854;174.870;2023-07-08T11:38:03;99224.00;;;12.70
19644;BMP180;9970;-36.854;174.870;2023-07-08T11:40:39;99219.00;;;12.70
19644;BMP180;9970;-36.854;174.870;2023-07-08T11:43:12;99216.00;;;12.70
19644;BMP180;9970;-36.854;174.870;2023-07-08T11:45:48;99208.00;;;12.60
19644;BMP180;9970;-36.854;174.870;2023-07-08T11:48:27;99217.00;;;12.60
19644;BMP180;9970;-36.854;174.870;2023-07-08T11:51:03;99200.00;;;12.60
19644;BMP180;9970;-36.854;174.870;2023-07-08T11:53:46;99201.00;;;12.60
19644;BMP180;9970;-36.854;174.870;2023-07-08T11:56:20;99201.00;;;12.60
19644;BMP180;9970;-36.854;174.870;2023-07-08T11:58:57;99194.00;;;12.60
19644;BMP180;9970;-36.854;174.870;2023-07-08T12:04:34;99191.00;;;12.60
19644;BMP180;9970;-36.854;174.870;2023-07-08T12:07:19;99196.00;;;12.60
19644;BMP180;9970;-36.854;174.870;2023-07-08T12:10:03;99189.00;;;12.60
19644;BMP180;9970;-36.854;174.870;2023-07-08T12:12:37;99187.00;;;12.60
19644;BMP180;9970;-36.854;174.870;2023-07-08T12:17:47;99176.00;;;12.60
19644;BMP180;9970;-36.854;174.870;2023-07-08T12:20:31;99170.00;;;12.60
19644;BMP180;9970;-36.854;174.870;2023-07-08T12:23:17;99181.00;;;12.60
19644;BMP180;9970;-36.854;174.870;2023-07-08T12:25:44;99184.00;;;12.60
19644;BMP180;9970;-36.854;174.870;2023-07-08T12:28:18;99188.00;;;12.60
19644;BMP180;9970;-36.854;174.870;2023-07-08T12:30:51;99180.00;;;12.60
19644;BMP180;9970;-36.854;174.870;2023-07-08T12:33:32;99191.00;;;12.60
19644;BMP180;9970;-36.854;174.870;2023-07-08T12:36:01;99203.00;;;12.60
19644;BMP180;9970;-36.854;174.870;2023-07-08T12:38:41;99189.00;;;12.60
19644;BMP180;9970;-36.854;174.870;2023-07-08T12:41:18;99196.00;;;12.60
19644;BMP180;9970;-36.854;174.870;2023-07-08T12:43:52;99189.00;;;12.50
19644;BMP180;9970;-36.854;174.870;2023-07-08T12:46:26;99183.00;;;12.50
19644;BMP180;9970;-36.854;174.870;2023-07-08T12:48:59;99189.00;;;12.50
19644;BMP180;9970;-36.854;174.870;2023-07-08T12:51:36;99183.00;;;12.60
19644;BMP180;9970;-36.854;174.870;2023-07-08T12:54:10;99183.00;;;12.50
19644;BMP180;9970;-36.854;174.870;2023-07-08T12:56:44;99181.00;;;12.50
19644;BMP180;9970;-36.854;174.870;2023-07-08T12:59:22;99177.00;;;12.50
19644;BMP180;9970;-36.854;174.870;2023-07-08T13:01:56;99184.00;;;12.50
19644;BMP180;9970;-36.854;174.870;2023-07-08T13:04:29;99181.00;;;12.50
19644;BMP180;9970;-36.854;174.870;2023-07-08T13:07:03;99177.00;;;12.50
19644;BMP180;9970;-36.854;174.870;2023-07-08T13:09:46;99174.00;;;12.50
19644;BMP180;9970;-36.854;174.870;2023-07-08T13:12:21;99173.00;;;12.50
19644;BMP180;9970;-36.854;174.870;2023-07-08T13:14:56;99169.00;;;12.50
19644;BMP180;9970;-36.854;174.870;2023-07-08T13:17:31;99172.00;;;12.50
19644;BMP180;9970;-36.854;174.870;2023-07-08T13:20:07;99165.00;;;12.50
19644;BMP180;9970;-36.854;174.870;2023-07-08T13:22:39;99164.00;;;12.50
19644;BMP180;9970;-36.854;174.870;2023-07-08T13:25:18;99158.00;;;12.50
19644;BMP180;9970;-36.854;174.870;2023-07-08T13:28:17;99161.00;;;12.50
19644;BMP180;9970;-36.854;174.870;2023-07-08T13:30:34;99157.00;;;12.50
19644;BMP180;9970;-36.854;174.870;2023-07-08T13:33:17;99154.00;;;12.50
19644;BMP180;9970;-36.854;174.870;2023-07-08T13:35:51;99155.00;;;12.50
19644;BMP180;9970;-36.854;174.870;2023-07-08T13:38:28;99151.00;;;12.50
19644;BMP180;9970;-36.854;174.870;2023-07-08T13:41:03;99158.00;;;12.40
19644;BMP180;9970;-36.854;174.870;2023-07-08T13:43:39;99159.00;;;12.50
19644;BMP180;9970;-36.854;174.870;2023-07-08T13:46:38;99163.00;;;12.40
19644;BMP180;9970;-36.854;174.870;2023-07-08T13:49:19;99164.00;;;12.40
19644;BMP180;9970;-36.854;174.870;2023-07-08T13:51:50;99165.00;;;12.40
19644;BMP180;9970;-36.854;174.870;2023-07-08T13:54:27;99165.00;;;12.40
19644;BMP180;9970;-36.854;174.870;2023-07-08T13:57:00;99157.00;;;12.40
19644;BMP180;9970;-36.854;174.870;2023-07-08T13:59:36;99168.00;;;12.30
19644;BMP180;9970;-36.854;174.870;2023-07-08T14:02:22;99179.00;;;12.30
19644;BMP180;9970;-36.854;174.870;2023-07-08T14:04:55;99167.00;;;12.30
19644;BMP180;9970;-36.854;174.870;2023-07-08T14:07:30;99168.00;;;12.30
19644;BMP180;9970;-36.854;174.870;2023-07-08T14:10:09;99170.00;;;12.30
19644;BMP180;9970;-36.854;174.870;2023-07-08T14:12:38;99163.00;;;12.30
19644;BMP180;9970;-36.854;174.870;2023-07-08T14:15:11;99165.00;;;12.30
19644;BMP180;9970;-36.854;174.870;2023-07-08T14:17:44;99173.00;;;12.30
19644;BMP180;9970;-36.854;174.870;2023-07-08T14:20:18;99168.00;;;12.30
19644;BMP180;9970;-36.854;174.870;2023-07-08T14:22:51;99159.00;;;12.30
19644;BMP180;9970;-36.854;174.870;2023-07-08T14:25:24;99164.00;;;12.30
19644;BMP180;9970;-36.854;174.870;2023-07-08T14:27:59;99164.00;;;12.30
19644;BMP180;9970;-36.854;174.870;2023-07-08T14:30:35;99162.00;;;12.20
19644;BMP180;9970;-36.854;174.870;2023-07-08T14:33:14;99152.00;;;12.20
19644;BMP180;9970;-36.854;174.870;2023-07-08T14:35:44;99149.00;;;12.20
19644;BMP180;9970;-36.854;174.870;2023-07-08T14:38:17;99157.00;;;12.20
19644;BMP180;9970;-36.854;174.870;2023-07-08T14:40:50;99157.00;;;12.30
19644;BMP180;9970;-36.854;174.870;2023-07-08T14:43:27;99168.00;;;12.30
19644;BMP180;9970;-36.854;174.870;2023-07-08T14:46:04;99161.00;;;12.30
19644;BMP180;9970;-36.854;174.870;2023-07-08T14:48:38;99172.00;;;12.30
19644;BMP180;9970;-36.854;174.870;2023-07-08T14:51:11;99170.00;;;12.30
19644;BMP180;9970;-36.854;174.870;2023-07-08T14:53:44;99166.00;;;12.20
19644;BMP180;9970;-36.854;174.870;2023-07-08T14:56:17;99181.00;;;12.20
19644;BMP180;9970;-36.854;174.870;2023-07-08T14:58:50;99166.00;;;12.20
19644;BMP180;9970;-36.854;174.870;2023-07-08T15:01:25;99180.00;;;12.20
19644;BMP180;9970;-36.854;174.870;2023-07-08T15:04:00;99188.00;;;12.20
19644;BMP180;9970;-36.854;174.870;2023-07-08T15:06:33;99184.00;;;12.20
19644;BMP180;9970;-36.854;174.870;2023-07-08T15:09:06;99181.00;;;12.20